sensor_id;sensor_type;location;lat;lon;timestamp;pressure;altitude;pressure_sealevel;temperature;humidity
9091;BME280;4581;42.416;25.598;2023-05-10T00:01:17;67195.59;;;0.00;nan
9091;BME280;4581;42.416;25.598;2023-05-10T00:03:43;67191.00;;;0.00;nan
9091;BME280;4581;42.416;25.598;2023-05-10T00:06:10;67195.59;;;0.00;nan
9091;BME280;4581;42.416;25.598;2023-05-10T00:08:37;67194.06;;;0.00;nan
9091;BME280;4581;42.416;25.598;2023-05-10T00:11:04;67195.59;;;0.00;nan
9091;BME280;4581;42.416;25.598;2023-05-10T00:13:31;67197.09;;;0.00;nan
9091;BME280;4581;42.416;25.598;2023-05-10T00:15:58;67197.09;;;0.00;nan
9091;BME280;4581;42.416;25.598;2023-05-10T00:18:24;67194.06;;;0.00;nan
9091;BME280;4581;42.416;25.598;2023-05-10T00:20:51;67191.00;;;0.00;nan
9091;BME280;4581;42.416;25.598;2023-05-10T00:23:18;67197.09;;;0.00;nan
9091;BME280;4581;42.416;25.598;2023-05-10T00:25:44;67184.91;;;0.00;nan
9091;BME280;4581;42.416;25.598;2023-05-10T00:28:11;67191.00;;;0.00;nan
9091;BME280;4581;42.416;25.598;2023-05-10T00:30:38;67192.53;;;0.00;nan
9091;BME280;4581;42.416;25.598;2023-05-10T00:33:04;67191.00;;;0.00;nan
9091;BME280;4581;42.416;25.598;2023-05-10T00:35:31;67192.53;;;0.00;nan
9091;BME280;4581;42.416;25.598;2023-05-10T00:37:58;67197.09;;;0.00;nan
9091;BME280;4581;42.416;25.598;2023-05-10T00:40:25;67198.63;;;0.00;nan
9091;BME280;4581;42.416;25.598;2023-05-10T00:42:51;67197.09;;;0.00;nan
9091;BME280;4581;42.416;25.598;2023-05-10T00:45:18;67198.63;;;0.00;nan
9091;BME280;4581;42.416;25.598;2023-05-10T00:47:45;67194.06;;;0.00;nan
9091;BME280;4581;42.416;25.598;2023-05-10T00:50:13;67195.59;;;0.00;nan
9091;BME280;4581;42.416;25.598;2023-05-10T00:52:41;67200.16;;;0.00;nan
9091;BME280;4581;42.416;25.598;2023-05-10T00:55:10;67203.22;;;0.00;nan
9091;BME280;4581;42.416;25.598;2023-05-10T00:57:38;67197.09;;;0.00;nan
9091;BME280;4581;42.416;25.598;2023-05-10T01:00:06;67197.09;;;0.00;nan
9091;BME280;4581;42.416;25.598;2023-05-10T01:02:34;67195.59;;;0.00;nan
9091;BME280;4581;42.416;25.598;2023-05-10T01:05:02;67194.06;;;0.00;nan
9091;BME280;4581;42.416;25.598;2023-05-10T01:07:30;67191.00;;;0.00;nan
9091;BME280;4581;42.416;25.598;2023-05-10T01:09:56;67191.00;;;0.00;nan
9091;BME280;4581;42.416;25.598;2023-05-10T01:12:24;67186.44;;;0.00;nan
9091;BME280;4581;42.416;25.598;2023-05-10T01:14:51;67192.53;;;0.00;nan
9091;BME280;4581;42.416;25.598;2023-05-10T01:17:18;67184.91;;;0.00;nan
9091;BME280;4581;42.416;25.598;2023-05-10T01:19:45;67184.91;;;0.00;nan
9091;BME280;4581;42.416;25.598;2023-05-10T01:28:05;67180.31;;;0.00;nan
9091;BME280;4581;42.416;25.598;2023-05-10T01:39:06;67194.06;;;0.00;nan
9091;BME280;4581;42.416;25.598;2023-05-10T01:41:51;67194.06;;;0.00;nan
9091;BME280;4581;42.416;25.598;2023-05-10T01:47:11;67189.47;;;0.00;nan
9091;BME280;4581;42.416;25.598;2023-05-10T01:50:01;67191.00;;;0.00;nan
9091;BME280;4581;42.416;25.598;2023-05-10T01:52:38;67191.00;;;0.00;nan
9091;BME280;4581;42.416;25.598;2023-05-10T01:55:14;67197.09;;;0.00;nan
9091;BME280;4581;42.416;25.598;2023-05-10T01:57:44;67195.59;;;0.00;nan
9091;BME280;4581;42.416;25.598;2023-05-10T02:00:12;67194.06;;;0.00;nan
9091;BME280;4581;42.416;25.598;2023-05-10T02:02:44;67195.59;;;0.00;nan
9091;BME280;4581;42.416;25.598;2023-05-10T02:05:12;67189.47;;;0.00;nan
9091;BME280;4581;42.416;25.598;2023-05-10T02:07:40;67200.16;;;0.00;nan
9091;BME280;4581;42.416;25.598;2023-05-10T02:10:09;67194.06;;;0.00;nan
9091;BME280;4581;42.416;25.598;2023-05-10T02:12:41;67191.00;;;0.00;nan
9091;BME280;4581;42.416;25.598;2023-05-10T02:15:10;67191.00;;;0.00;nan
9091;BME280;4581;42.416;25.598;2023-05-10T02:17:38;67187.94;;;0.00;nan
9091;BME280;4581;42.416;25.598;2023-05-10T02:20:06;67184.91;;;0.00;nan
9091;BME280;4581;42.416;25.598;2023-05-10T02:22:35;67189.47;;;0.00;nan
9091;BME280;4581;42.416;25.598;2023-05-10T02:25:03;67178.78;;;0.00;nan
9091;BME280;4581;42.416;25.598;2023-05-10T02:27:31;67177.28;;;0.00;nan
9091;BME280;4581;42.416;25.598;2023-05-10T02:29:58;67178.78;;;0.00;nan
9091;BME280;4581;42.416;25.598;2023-05-10T02:32:26;67181.84;;;0.00;nan
9091;BME280;4581;42.416;25.598;2023-05-10T02:34:54;67180.31;;;0.00;nan
9091;BME280;4581;42.416;25.598;2023-05-10T02:37:22;67180.31;;;0.00;nan
9091;BME280;4581;42.416;25.598;2023-05-10T02:39:50;67181.84;;;0.00;nan
9091;BME280;4581;42.416;25.598;2023-05-10T02:42:20;67184.91;;;0.00;nan
9091;BME280;4581;42.416;25.598;2023-05-10T02:44:51;67184.91;;;0.00;nan
9091;BME280;4581;42.416;25.598;2023-05-10T02:47:19;67191.00;;;0.00;nan
9091;BME280;4581;42.416;25.598;2023-05-10T02:49:46;67186.44;;;0.00;nan
9091;BME280;4581;42.416;25.598;2023-05-10T02:52:16;67187.94;;;0.00;nan
9091;BME280;4581;42.416;25.598;2023-05-10T02:54:49;67191.00;;;0.00;nan
9091;BME280;4581;42.416;25.598;2023-05-10T02:57:22;67192.53;;;0.00;nan
9091;BME280;4581;42.416;25.598;2023-05-10T02:59:51;67186.44;;;0.00;nan
9091;BME280;4581;42.416;25.598;2023-05-10T03:02:18;67187.94;;;0.00;nan
9091;BME280;4581;42.416;25.598;2023-05-10T03:04:45;67186.44;;;0.00;nan
9091;BME280;4581;42.416;25.598;2023-05-10T03:07:12;67187.94;;;0.00;nan
9091;BME280;4581;42.416;25.598;2023-05-10T03:09:39;67189.47;;;0.00;nan
9091;BME280;4581;42.416;25.598;2023-05-10T03:15:13;67184.91;;;0.00;nan
9091;BME280;4581;42.416;25.598;2023-05-10T03:18:01;67183.38;;;0.00;nan
9091;BME280;4581;42.416;25.598;2023-05-10T03:21:02;67174.22;;;0.00;nan
9091;BME280;4581;42.416;25.598;2023-05-10T03:23:43;67171.16;;;0.00;nan
9091;BME280;4581;42.416;25.598;2023-05-10T03:26:17;67169.63;;;0.00;nan
9091;BME280;4581;42.416;25.598;2023-05-10T03:28:45;67171.16;;;0.00;nan
9091;BME280;4581;42.416;25.598;2023-05-10T03:31:12;67169.63;;;0.00;nan
9091;BME280;4581;42.416;25.598;2023-05-10T03:34:05;67175.75;;;0.00;nan
9091;BME280;4581;42.416;25.598;2023-05-10T03:36:33;67178.78;;;0.00;nan
9091;BME280;4581;42.416;25.598;2023-05-10T03:39:00;67187.94;;;0.00;nan
9091;BME280;4581;42.416;25.598;2023-05-10T03:41:26;67184.91;;;0.00;nan
9091;BME280;4581;42.416;25.598;2023-05-10T03:43:53;67192.53;;;0.00;nan
9091;BME280;4581;42.416;25.598;2023-05-10T03:46:20;67192.53;;;0.00;nan
9091;BME280;4581;42.416;25.598;2023-05-10T03:48:47;67192.53;;;0.00;nan
9091;BME280;4581;42.416;25.598;2023-05-10T03:51:13;67195.59;;;0.00;nan
9091;BME280;4581;42.416;25.598;2023-05-10T03:53:40;67192.53;;;0.00;nan
9091;BME280;4581;42.416;25.598;2023-05-10T03:56:07;67194.06;;;0.00;nan
9091;BME280;4581;42.416;25.598;2023-05-10T03:58:33;67195.59;;;0.00;nan
9091;BME280;4581;42.416;25.598;2023-05-10T04:01:00;67194.06;;;0.00;nan
9091;BME280;4581;42.416;25.598;2023-05-10T04:03:27;67187.94;;;0.00;nan
9091;BME280;4581;42.416;25.598;2023-05-10T04:06:00;67183.38;;;0.00;nan
9091;BME280;4581;42.416;25.598;2023-05-10T04:08:28;67191.00;;;0.00;nan
9091;BME280;4581;42.416;25.598;2023-05-10T04:11:04;67187.94;;;0.00;nan
9091;BME280;4581;42.416;25.598;2023-05-10T04:13:32;67189.47;;;0.00;nan
9091;BME280;4581;42.416;25.598;2023-05-10T04:15:59;67194.06;;;0.00;nan
9091;BME280;4581;42.416;25.598;2023-05-10T04:18:26;67194.06;;;0.00;nan
9091;BME280;4581;42.416;25.598;2023-05-10T04:20:52;67195.59;;;0.00;nan
9091;BME280;4581;42.416;25.598;2023-05-10T04:23:19;67189.47;;;0.00;nan
9091;BME280;4581;42.416;25.598;2023-05-10T04:25:46;67177.28;;;0.00;nan
9091;BME280;4581;42.416;25.598;2023-05-10T04:28:12;67180.31;;;0.00;nan
9091;BME280;4581;42.416;25.598;2023-05-10T04:30:39;67178.78;;;0.00;nan
9091;BME280;4581;42.416;25.598;2023-05-10T04:33:06;67169.63;;;0.00;nan
9091;BME280;4581;42.416;25.598;2023-05-10T04:35:34;67163.53;;;0.00;nan
9091;BME280;4581;42.416;25.598;2023-05-10T04:38:01;67162.00;;;0.00;nan
9091;BME280;4581;42.416;25.598;2023-05-10T04:40:28;67151.34;;;0.00;nan
9091;BME280;4581;42.416;25.598;2023-05-10T04:42:54;67149.81;;;0.00;nan
9091;BME280;4581;42.416;25.598;2023-05-10T04:45:21;67142.19;;;0.00;nan
9091;BME280;4581;42.416;25.598;2023-05-10T04:47:48;67145.22;;;0.00;nan
9091;BME280;4581;42.416;25.598;2023-05-10T04:50:15;67137.59;;;0.00;nan
9091;BME280;4581;42.416;25.598;2023-05-10T04:52:42;67131.50;;;0.00;nan
9091;BME280;4581;42.416;25.598;2023-05-10T04:55:09;67122.34;;;0.00;nan
9091;BME280;4581;42.416;25.598;2023-05-10T04:57:36;67129.97;;;0.00;nan
9091;BME280;4581;42.416;25.598;2023-05-10T05:00:03;67123.88;;;0.00;nan
9091;BME280;4581;42.416;25.598;2023-05-10T05:02:30;67119.28;;;0.00;nan
9091;BME280;4581;42.416;25.598;2023-05-10T05:04:57;67123.88;;;0.00;nan
9091;BME280;4581;42.416;25.598;2023-05-10T05:07:24;67123.88;;;0.00;nan
9091;BME280;4581;42.416;25.598;2023-05-10T05:09:50;67122.34;;;0.00;nan
9091;BME280;4581;42.416;25.598;2023-05-10T05:12:17;67129.97;;;0.00;nan
9091;BME280;4581;42.416;25.598;2023-05-10T05:14:44;67125.38;;;0.00;nan
9091;BME280;4581;42.416;25.598;2023-05-10T05:17:10;67119.28;;;0.00;nan
9091;BME280;4581;42.416;25.598;2023-05-10T05:19:37;67105.56;;;0.00;nan
9091;BME280;4581;42.416;25.598;2023-05-10T05:22:06;67096.41;;;0.00;nan
9091;BME280;4581;42.416;25.598;2023-05-10T05:24:36;67078.09;;;0.00;nan
9091;BME280;4581;42.416;25.598;2023-05-10T05:27:06;67065.88;;;0.00;nan
9091;BME280;4581;42.416;25.598;2023-05-10T05:29:32;67059.78;;;0.00;nan
9091;BME280;4581;42.416;25.598;2023-05-10T05:31:59;67049.09;;;0.00;nan
9091;BME280;4581;42.416;25.598;2023-05-10T05:34:26;67033.84;;;0.00;nan
9091;BME280;4581;42.416;25.598;2023-05-10T05:36:53;67032.31;;;0.00;nan
9091;BME280;4581;42.416;25.598;2023-05-10T05:39:20;67035.38;;;0.00;nan
9091;BME280;4581;42.416;25.598;2023-05-10T05:41:47;67026.22;;;0.00;nan
9091;BME280;4581;42.416;25.598;2023-05-10T05:44:13;67027.72;;;0.00;nan
9091;BME280;4581;42.416;25.598;2023-05-10T05:46:40;67029.25;;;0.00;nan
9091;BME280;4581;42.416;25.598;2023-05-10T05:49:07;67029.25;;;0.00;nan
9091;BME280;4581;42.416;25.598;2023-05-10T05:51:33;67027.72;;;0.00;nan
9091;BME280;4581;42.416;25.598;2023-05-10T05:54:01;67041.47;;;0.00;nan
9091;BME280;4581;42.416;25.598;2023-05-10T05:56:30;67053.69;;;0.00;nan
9091;BME280;4581;42.416;25.598;2023-05-10T05:58:57;67044.53;;;0.00;nan
9091;BME280;4581;42.416;25.598;2023-05-10T06:01:23;67052.16;;;0.00;nan
9091;BME280;4581;42.416;25.598;2023-05-10T06:03:50;67073.50;;;0.00;nan
9091;BME280;4581;42.416;25.598;2023-05-10T06:06:18;67081.13;;;0.00;nan
9091;BME280;4581;42.416;25.598;2023-05-10T06:08:45;67099.44;;;0.00;nan
9091;BME280;4581;42.416;25.598;2023-05-10T06:11:12;67102.50;;;0.00;nan
9091;BME280;4581;42.416;25.598;2023-05-10T06:13:38;67111.66;;;0.00;nan
9091;BME280;4581;42.416;25.598;2023-05-10T06:16:05;67102.50;;;0.00;nan
9091;BME280;4581;42.416;25.598;2023-05-10T06:18:32;67105.56;;;0.00;nan
9091;BME280;4581;42.416;25.598;2023-05-10T06:20:59;67099.44;;;0.00;nan
9091;BME280;4581;42.416;25.598;2023-05-10T06:23:26;67084.19;;;0.00;nan
9091;BME280;4581;42.416;25.598;2023-05-10T06:25:53;67073.50;;;0.00;nan
9091;BME280;4581;42.416;25.598;2023-05-10T06:28:20;67056.72;;;0.00;nan
9091;BME280;4581;42.416;25.598;2023-05-10T06:30:47;67030.78;;;0.00;nan
9091;BME280;4581;42.416;25.598;2023-05-10T06:33:14;67020.09;;;0.00;nan
9091;BME280;4581;42.416;25.598;2023-05-10T06:35:42;67012.47;;;0.00;nan
9091;BME280;4581;42.416;25.598;2023-05-10T06:38:09;67004.84;;;0.00;nan
9091;BME280;4581;42.416;25.598;2023-05-10T06:40:36;66998.75;;;0.00;nan
9091;BME280;4581;42.416;25.598;2023-05-10T06:43:02;66992.63;;;0.00;nan
9091;BME280;4581;42.416;25.598;2023-05-10T06:45:29;66980.44;;;0.00;nan
9091;BME280;4581;42.416;25.598;2023-05-10T06:47:56;66968.22;;;0.00;nan
9091;BME280;4581;42.416;25.598;2023-05-10T06:50:23;66966.69;;;0.00;nan
9091;BME280;4581;42.416;25.598;2023-05-10T06:52:49;66963.66;;;0.00;nan
9091;BME280;4581;42.416;25.598;2023-05-10T06:55:18;66991.13;;;0.00;nan
9091;BME280;4581;42.416;25.598;2023-05-10T06:57:45;67001.78;;;0.00;nan
9091;BME280;4581;42.416;25.598;2023-05-10T07:00:12;66989.59;;;0.00;nan
9091;BME280;4581;42.416;25.598;2023-05-10T07:02:39;66998.75;;;0.00;nan
9091;BME280;4581;42.416;25.598;2023-05-10T07:05:06;67009.41;;;0.00;nan
9091;BME280;4581;42.416;25.598;2023-05-10T07:07:33;66991.13;;;0.00;nan
9091;BME280;4581;42.416;25.598;2023-05-10T07:09:59;66980.44;;;0.00;nan
9091;BME280;4581;42.416;25.598;2023-05-10T07:12:27;66962.13;;;0.00;nan
9091;BME280;4581;42.416;25.598;2023-05-10T07:14:54;66942.28;;;0.00;nan
9091;BME280;4581;42.416;25.598;2023-05-10T07:17:20;66937.72;;;0.00;nan
9091;BME280;4581;42.416;25.598;2023-05-10T07:19:47;66939.22;;;0.00;nan
9091;BME280;4581;42.416;25.598;2023-05-10T07:22:15;66933.13;;;0.00;nan
9091;BME280;4581;42.416;25.598;2023-05-10T07:24:43;66931.59;;;0.00;nan
9091;BME280;4581;42.416;25.598;2023-05-10T07:27:10;66917.88;;;0.00;nan
9091;BME280;4581;42.416;25.598;2023-05-10T07:29:36;66882.78;;;0.00;nan
9091;BME280;4581;42.416;25.598;2023-05-10T07:32:04;66821.75;;;0.00;nan
9091;BME280;4581;42.416;25.598;2023-05-10T07:34:31;66783.59;;;0.00;nan
9091;BME280;4581;42.416;25.598;2023-05-10T07:36:58;66814.09;;;0.00;nan
9091;BME280;4581;42.416;25.598;2023-05-10T07:39:26;66826.31;;;0.00;nan
9091;BME280;4581;42.416;25.598;2023-05-10T07:41:56;66840.06;;;0.00;nan
9091;BME280;4581;42.416;25.598;2023-05-10T07:44:23;66840.06;;;0.00;nan
9091;BME280;4581;42.416;25.598;2023-05-10T07:46:50;66847.69;;;0.00;nan
9091;BME280;4581;42.416;25.598;2023-05-10T07:49:17;66841.56;;;0.00;nan
9091;BME280;4581;42.416;25.598;2023-05-10T07:51:43;66808.00;;;0.00;nan
9091;BME280;4581;42.416;25.598;2023-05-10T07:54:10;66811.06;;;0.00;nan
9091;BME280;4581;42.416;25.598;2023-05-10T07:56:37;66797.31;;;0.00;nan
9091;BME280;4581;42.416;25.598;2023-05-10T07:59:04;66797.31;;;0.00;nan
9091;BME280;4581;42.416;25.598;2023-05-10T08:01:34;66766.81;;;0.00;nan
9091;BME280;4581;42.416;25.598;2023-05-10T08:04:01;66745.44;;;0.00;nan
9091;BME280;4581;42.416;25.598;2023-05-10T08:06:28;66730.19;;;0.00;nan
9091;BME280;4581;42.416;25.598;2023-05-10T08:08:56;66748.50;;;0.00;nan
9091;BME280;4581;42.416;25.598;2023-05-10T08:11:23;66757.66;;;0.00;nan
9091;BME280;4581;42.416;25.598;2023-05-10T08:13:50;66766.81;;;0.00;nan
9091;BME280;4581;42.416;25.598;2023-05-10T08:16:17;66777.50;;;0.00;nan
9091;BME280;4581;42.416;25.598;2023-05-10T08:18:45;66751.53;;;0.00;nan
9091;BME280;4581;42.416;25.598;2023-05-10T08:21:14;66746.97;;;0.00;nan
9091;BME280;4581;42.416;25.598;2023-05-10T08:23:41;66748.50;;;0.00;nan
9091;BME280;4581;42.416;25.598;2023-05-10T08:26:07;66745.44;;;0.00;nan
9091;BME280;4581;42.416;25.598;2023-05-10T08:28:34;66742.41;;;0.00;nan
9091;BME280;4581;42.416;25.598;2023-05-10T08:31:01;66737.81;;;0.00;nan
9091;BME280;4581;42.416;25.598;2023-05-10T08:33:28;66751.53;;;0.00;nan
9091;BME280;4581;42.416;25.598;2023-05-10T08:35:54;66739.34;;;0.00;nan
9091;BME280;4581;42.416;25.598;2023-05-10T08:38:21;66727.13;;;0.00;nan
9091;BME280;4581;42.416;25.598;2023-05-10T08:40:49;66721.03;;;0.00;nan
9091;BME280;4581;42.416;25.598;2023-05-10T08:43:17;66731.72;;;0.00;nan
9091;BME280;4581;42.416;25.598;2023-05-10T08:45:44;66750.03;;;0.00;nan
9091;BME280;4581;42.416;25.598;2023-05-10T08:48:15;66731.72;;;0.00;nan
9091;BME280;4581;42.416;25.598;2023-05-10T08:50:44;66675.25;;;0.00;nan
9091;BME280;4581;42.416;25.598;2023-05-10T08:53:13;66650.84;;;0.00;nan
9091;BME280;4581;42.416;25.598;2023-05-10T08:55:40;66618.78;;;0.00;nan
9091;BME280;4581;42.416;25.598;2023-05-10T08:58:09;66641.69;;;0.00;nan
9091;BME280;4581;42.416;25.598;2023-05-10T09:00:36;66682.88;;;0.00;nan
9091;BME280;4581;42.416;25.598;2023-05-10T09:03:06;66690.50;;;0.00;nan
9091;BME280;4581;42.416;25.598;2023-05-10T09:05:33;66711.88;;;0.00;nan
9091;BME280;4581;42.416;25.598;2023-05-10T09:08:00;66705.78;;;0.00;nan
9091;BME280;4581;42.416;25.598;2023-05-10T09:10:27;66733.25;;;0.00;nan
9091;BME280;4581;42.416;25.598;2023-05-10T09:12:58;66742.41;;;0.00;nan
9091;BME280;4581;42.416;25.598;2023-05-10T09:15:25;66719.50;;;0.00;nan
9091;BME280;4581;42.416;25.598;2023-05-10T09:17:54;66708.81;;;0.00;nan
9091;BME280;4581;42.416;25.598;2023-05-10T09:20:21;66713.41;;;0.00;nan
9091;BME280;4581;42.416;25.598;2023-05-10T09:22:47;66702.72;;;0.00;nan
9091;BME280;4581;42.416;25.598;2023-05-10T09:25:15;66704.25;;;0.00;nan
9091;BME280;4581;42.416;25.598;2023-05-10T09:27:46;66724.09;;;0.00;nan
9091;BME280;4581;42.416;25.598;2023-05-10T09:30:23;66736.28;;;0.00;nan
9091;BME280;4581;42.416;25.598;2023-05-10T09:32:51;66727.13;;;0.00;nan
9091;BME280;4581;42.416;25.598;2023-05-10T09:35:21;66710.34;;;0.00;nan
9091;BME280;4581;42.416;25.598;2023-05-10T09:37:50;66717.97;;;0.00;nan
9091;BME280;4581;42.416;25.598;2023-05-10T09:40:19;66717.97;;;0.00;nan
9091;BME280;4581;42.416;25.598;2023-05-10T09:45:27;66733.25;;;0.00;nan
9091;BME280;4581;42.416;25.598;2023-05-10T09:47:54;66727.13;;;0.00;nan
9091;BME280;4581;42.416;25.598;2023-05-10T09:50:22;66721.03;;;0.00;nan
9091;BME280;4581;42.416;25.598;2023-05-10T09:52:58;66716.44;;;0.00;nan
9091;BME280;4581;42.416;25.598;2023-05-10T09:55:38;66702.72;;;0.00;nan
9091;BME280;4581;42.416;25.598;2023-05-10T09:58:05;66708.81;;;0.00;nan
9091;BME280;4581;42.416;25.598;2023-05-10T10:00:41;66690.50;;;0.00;nan
9091;BME280;4581;42.416;25.598;2023-05-10T10:03:15;66672.19;;;0.00;nan
9091;BME280;4581;42.416;25.598;2023-05-10T10:05:43;66669.16;;;0.00;nan
9091;BME280;4581;42.416;25.598;2023-05-10T10:08:11;66667.63;;;0.00;nan
9091;BME280;4581;42.416;25.598;2023-05-10T10:10:38;66673.72;;;0.00;nan
9091;BME280;4581;42.416;25.598;2023-05-10T10:13:07;66696.63;;;0.00;nan
9091;BME280;4581;42.416;25.598;2023-05-10T10:15:34;66704.25;;;0.00;nan
9091;BME280;4581;42.416;25.598;2023-05-10T10:18:02;66702.72;;;0.00;nan
9091;BME280;4581;42.416;25.598;2023-05-10T10:20:30;66687.47;;;0.00;nan
9091;BME280;4581;42.416;25.598;2023-05-10T10:22:57;66658.47;;;0.00;nan
9091;BME280;4581;42.416;25.598;2023-05-10T10:25:24;66629.47;;;0.00;nan
9091;BME280;4581;42.416;25.598;2023-05-10T10:33:10;66621.84;;;0.00;nan
9091;BME280;4581;42.416;25.598;2023-05-10T10:35:54;66624.91;;;0.00;nan
9091;BME280;4581;42.416;25.598;2023-05-10T10:38:21;66627.94;;;0.00;nan
9091;BME280;4581;42.416;25.598;2023-05-10T10:41:02;66608.13;;;0.00;nan
9091;BME280;4581;42.416;25.598;2023-05-10T10:43:29;66623.38;;;0.00;nan
9091;BME280;4581;42.416;25.598;2023-05-10T10:46:13;66620.31;;;0.00;nan
9091;BME280;4581;42.416;25.598;2023-05-10T10:48:47;66629.47;;;0.00;nan
9091;BME280;4581;42.416;25.598;2023-05-10T10:51:14;66635.59;;;0.00;nan
9091;BME280;4581;42.416;25.598;2023-05-10T10:53:41;66644.72;;;0.00;nan
9091;BME280;4581;42.416;25.598;2023-05-10T10:56:12;66637.09;;;0.00;nan
9091;BME280;4581;42.416;25.598;2023-05-10T10:58:40;66646.25;;;0.00;nan
9091;BME280;4581;42.416;25.598;2023-05-10T11:03:37;66623.38;;;0.00;nan
9091;BME280;4581;42.416;25.598;2023-05-10T11:06:04;66647.78;;;0.00;nan
9091;BME280;4581;42.416;25.598;2023-05-10T11:08:41;66644.72;;;0.00;nan
9091;BME280;4581;42.416;25.598;2023-05-10T11:11:09;66618.78;;;0.00;nan
9091;BME280;4581;42.416;25.598;2023-05-10T11:13:42;66605.06;;;0.00;nan
9091;BME280;4581;42.416;25.598;2023-05-10T11:18:40;66591.31;;;0.00;nan
9091;BME280;4581;42.416;25.598;2023-05-10T11:21:08;66548.59;;;0.00;nan
9091;BME280;4581;42.416;25.598;2023-05-10T11:26:07;66522.66;;;0.00;nan
9091;BME280;4581;42.416;25.598;2023-05-10T11:28:46;66501.31;;;0.00;nan
9091;BME280;4581;42.416;25.598;2023-05-10T11:31:14;66466.22;;;0.00;nan
9091;BME280;4581;42.416;25.598;2023-05-10T11:33:45;66460.09;;;0.00;nan
9091;BME280;4581;42.416;25.598;2023-05-10T11:36:14;66466.22;;;0.00;nan
9091;BME280;4581;42.416;25.598;2023-05-10T11:38:41;66449.41;;;0.00;nan
9091;BME280;4581;42.416;25.598;2023-05-10T11:41:09;66399.06;;;0.00;nan
9091;BME280;4581;42.416;25.598;2023-05-10T11:43:39;66405.16;;;0.00;nan
9091;BME280;4581;42.416;25.598;2023-05-10T11:46:08;66460.09;;;0.00;nan
9091;BME280;4581;42.416;25.598;2023-05-10T11:48:39;66479.94;;;0.00;nan
9091;BME280;4581;42.416;25.598;2023-05-10T11:51:09;66489.09;;;0.00;nan
9091;BME280;4581;42.416;25.598;2023-05-10T11:53:36;66505.88;;;0.00;nan
9091;BME280;4581;42.416;25.598;2023-05-10T11:56:09;66530.28;;;0.00;nan
9091;BME280;4581;42.416;25.598;2023-05-10T11:58:39;66525.72;;;0.00;nan
9091;BME280;4581;42.416;25.598;2023-05-10T12:01:07;66511.97;;;0.00;nan
9091;BME280;4581;42.416;25.598;2023-05-10T12:03:34;66515.03;;;0.00;nan
9091;BME280;4581;42.416;25.598;2023-05-10T12:06:02;66530.28;;;0.00;nan
9091;BME280;4581;42.416;25.598;2023-05-10T12:08:29;66533.34;;;0.00;nan
9091;BME280;4581;42.416;25.598;2023-05-10T12:11:08;66511.97;;;0.00;nan
9091;BME280;4581;42.416;25.598;2023-05-10T12:13:38;66499.78;;;0.00;nan
9091;BME280;4581;42.416;25.598;2023-05-10T12:16:18;66479.94;;;0.00;nan
9091;BME280;4581;42.416;25.598;2023-05-10T12:18:49;66438.75;;;0.00;nan
9091;BME280;4581;42.416;25.598;2023-05-10T12:21:18;66432.63;;;0.00;nan
9091;BME280;4581;42.416;25.598;2023-05-10T12:23:46;66414.31;;;0.00;nan
9091;BME280;4581;42.416;25.598;2023-05-10T12:26:13;66418.91;;;0.00;nan
9091;BME280;4581;42.416;25.598;2023-05-10T12:28:40;66446.38;;;0.00;nan
9091;BME280;4581;42.416;25.598;2023-05-10T12:31:07;66434.16;;;0.00;nan
9091;BME280;4581;42.416;25.598;2023-05-10T12:33:39;66469.25;;;0.00;nan
9091;BME280;4581;42.416;25.598;2023-05-10T12:36:06;66463.16;;;0.00;nan
9091;BME280;4581;42.416;25.598;2023-05-10T12:38:36;66457.06;;;0.00;nan
9091;BME280;4581;42.416;25.598;2023-05-10T12:41:08;66455.53;;;0.00;nan
9091;BME280;4581;42.416;25.598;2023-05-10T12:43:36;66458.56;;;0.00;nan
9091;BME280;4581;42.416;25.598;2023-05-10T12:46:10;66420.44;;;0.00;nan
9091;BME280;4581;42.416;25.598;2023-05-10T12:48:38;66412.81;;;0.00;nan
9091;BME280;4581;42.416;25.598;2023-05-10T12:51:06;66409.75;;;0.00;nan
9091;BME280;4581;42.416;25.598;2023-05-10T12:53:35;66403.66;;;0.00;nan
9091;BME280;4581;42.416;25.598;2023-05-10T12:56:03;66420.44;;;0.00;nan
9091;BME280;4581;42.416;25.598;2023-05-10T12:58:30;66440.25;;;0.00;nan
9091;BME280;4581;42.416;25.598;2023-05-10T13:01:01;66467.72;;;0.00;nan
9091;BME280;4581;42.416;25.598;2023-05-10T13:03:28;66484.53;;;0.00;nan
9091;BME280;4581;42.416;25.598;2023-05-10T13:05:55;66475.38;;;0.00;nan
9091;BME280;4581;42.416;25.598;2023-05-10T13:08:22;66464.69;;;0.00;nan
9091;BME280;4581;42.416;25.598;2023-05-10T13:10:49;66463.16;;;0.00;nan
9091;BME280;4581;42.416;25.598;2023-05-10T13:13:16;66467.72;;;0.00;nan
9091;BME280;4581;42.416;25.598;2023-05-10T13:15:42;66461.63;;;0.00;nan
9091;BME280;4581;42.416;25.598;2023-05-10T13:18:09;66460.09;;;0.00;nan
9091;BME280;4581;42.416;25.598;2023-05-10T13:20:36;66464.69;;;0.00;nan
9091;BME280;4581;42.416;25.598;2023-05-10T13:23:03;66486.03;;;0.00;nan
9091;BME280;4581;42.416;25.598;2023-05-10T13:25:29;66489.09;;;0.00;nan
9091;BME280;4581;42.416;25.598;2023-05-10T13:27:56;66487.56;;;0.00;nan
9091;BME280;4581;42.416;25.598;2023-05-10T13:30:23;66483.00;;;0.00;nan
9091;BME280;4581;42.416;25.598;2023-05-10T13:32:50;66511.97;;;0.00;nan
9091;BME280;4581;42.416;25.598;2023-05-10T13:35:17;66510.47;;;0.00;nan
9091;BME280;4581;42.416;25.598;2023-05-10T13:37:44;66524.19;;;0.00;nan
9091;BME280;4581;42.416;25.598;2023-05-10T13:40:11;66527.25;;;0.00;nan
9091;BME280;4581;42.416;25.598;2023-05-10T13:42:38;66528.78;;;0.00;nan
9091;BME280;4581;42.416;25.598;2023-05-10T13:45:05;66577.59;;;0.00;nan
9091;BME280;4581;42.416;25.598;2023-05-10T13:47:32;66571.50;;;0.00;nan
9091;BME280;4581;42.416;25.598;2023-05-10T13:49:59;66563.88;;;0.00;nan
9091;BME280;4581;42.416;25.598;2023-05-10T13:52:26;66573.03;;;0.00;nan
9091;BME280;4581;42.416;25.598;2023-05-10T13:54:52;66589.81;;;0.00;nan
9091;BME280;4581;42.416;25.598;2023-05-10T13:57:22;66591.31;;;0.00;nan
9091;BME280;4581;42.416;25.598;2023-05-10T13:59:49;66589.81;;;0.00;nan
9091;BME280;4581;42.416;25.598;2023-05-10T14:02:16;66576.06;;;0.00;nan
9091;BME280;4581;42.416;25.598;2023-05-10T14:04:43;66568.44;;;0.00;nan
9091;BME280;4581;42.416;25.598;2023-05-10T14:07:10;66574.53;;;0.00;nan
9091;BME280;4581;42.416;25.598;2023-05-10T14:09:36;66583.69;;;0.00;nan
9091;BME280;4581;42.416;25.598;2023-05-10T14:12:03;66589.81;;;0.00;nan
9091;BME280;4581;42.416;25.598;2023-05-10T14:14:30;66598.97;;;0.00;nan
9091;BME280;4581;42.416;25.598;2023-05-10T14:16:57;66598.97;;;0.00;nan
9091;BME280;4581;42.416;25.598;2023-05-10T14:19:23;66600.47;;;0.00;nan
9091;BME280;4581;42.416;25.598;2023-05-10T14:21:50;66586.75;;;0.00;nan
9091;BME280;4581;42.416;25.598;2023-05-10T14:24:18;66571.50;;;0.00;nan
9091;BME280;4581;42.416;25.598;2023-05-10T14:26:45;66556.22;;;0.00;nan